Time;durP1;ratioP1;P1;durP2;ratioP2;P2;SDS_P1;SDS_P2;PMS_P1;PMS_P2;Temp;Humidity;BMP_temperature;BMP_pressure;BME280_temperature;BME280_humidity;BME280_pressure;Samples;Min_cycle;Max_cycle;Signal;HPM_P1;HPM_P2
2021/07/19 00:00:42;;;;;;;0.85;0.68;;;;;;;;;;5070922;28;20024;-71
2021/07/19 00:03:08;;;;;;;1.38;0.80;;;;;;;;;;5070615;28;20059;-71
2021/07/19 00:05:34;;;;;;;1.92;0.90;;;;;;;;;;5070059;28;20032;-71
2021/07/19 00:07:59;;;;;;;2.33;0.90;;;;;;;;;;5070560;28;20024;-71
2021/07/19 00:10:25;;;;;;;1.98;0.88;;;;;;;;;;5062502;28;20034;-71
2021/07/19 00:12:51;;;;;;;1.52;0.80;;;;;;;;;;5070326;28;20380;-72
2021/07/19 00:15:24;;;;;;;1.85;0.80;;;;;;;;;;5051841;28;20500;-72
2021/07/19 00:17:51;;;;;;;3.70;1.00;;;;;;;;;;5050303;28;20405;-72
2021/07/19 00:20:17;;;;;;;3.00;1.13;;;;;;;;;;5050596;28;20020;-71
2021/07/19 00:22:44;;;;;;;2.85;1.35;;;;;;;;;;5050711;28;20063;-72
2021/07/19 00:25:11;;;;;;;3.20;1.30;;;;;;;;;;5050541;28;20032;-72
2021/07/19 00:27:38;;;;;;;1.95;1.20;;;;;;;;;;5050415;28;20057;-72
2021/07/19 00:30:06;;;;;;;4.13;1.30;;;;;;;;;;5050715;28;20039;-71
2021/07/19 00:32:32;;;;;;;4.70;1.58;;;;;;;;;;5060918;28;20029;-71
2021/07/19 00:34:57;;;;;;;3.05;1.30;;;;;;;;;;5062811;28;20366;-72
2021/07/19 00:37:22;;;;;;;2.75;1.40;;;;;;;;;;5050224;28;20111;-71
2021/07/19 00:39:48;;;;;;;2.65;1.55;;;;;;;;;;5089425;28;20035;-71
2021/07/19 00:42:13;;;;;;;4.03;1.52;;;;;;;;;;5090930;28;20510;-71
2021/07/19 00:44:39;;;;;;;4.82;1.75;;;;;;;;;;5090930;28;20379;-72
2021/07/19 00:47:06;;;;;;;5.18;1.70;;;;;;;;;;5090789;28;20030;-71
2021/07/19 00:49:33;;;;;;;3.88;1.50;;;;;;;;;;5084369;28;20106;-71
2021/07/19 00:51:58;;;;;;;3.10;1.60;;;;;;;;;;5049658;28;20044;-71
2021/07/19 00:54:27;;;;;;;4.35;1.50;;;;;;;;;;5050102;28;20025;-71
2021/07/19 00:56:55;;;;;;;2.90;1.50;;;;;;;;;;5050714;28;20063;-70
2021/07/19 00:59:23;;;;;;;3.33;1.75;;;;;;;;;;5050046;28;20029;-70
2021/07/19 01:01:52;;;;;;;3.70;1.70;;;;;;;;;;5050529;28;20039;-70
2021/07/19 01:04:19;;;;;;;4.40;1.80;;;;;;;;;;5067128;28;20098;-70
2021/07/19 01:06:47;;;;;;;3.70;1.83;;;;;;;;;;5070315;28;20025;-70
2021/07/19 01:09:13;;;;;;;3.80;1.70;;;;;;;;;;5053921;28;20080;-70
2021/07/19 01:11:39;;;;;;;3.03;1.70;;;;;;;;;;5050124;28;20492;-70
2021/07/19 01:14:04;;;;;;;3.97;1.60;;;;;;;;;;5052890;28;20025;-71
2021/07/19 01:16:30;;;;;;;4.10;1.60;;;;;;;;;;5074249;28;20031;-71
2021/07/19 01:18:56;;;;;;;3.50;1.60;;;;;;;;;;5094687;28;20140;-72
2021/07/19 01:21:21;;;;;;;3.00;1.85;;;;;;;;;;5094265;28;20024;-71
2021/07/19 01:27:26;;;;;;;2.22;1.52;;;;;;;;;;5068903;28;20036;-71
2021/07/19 01:29:53;;;;;;;5.45;2.03;;;;;;;;;;5055497;28;20036;-71
2021/07/19 01:32:21;;;;;;;3.50;1.70;;;;;;;;;;5073837;28;20040;-70
2021/07/19 01:34:46;;;;;;;3.67;1.67;;;;;;;;;;5073439;28;20036;-70
2021/07/19 01:37:13;;;;;;;3.63;2.08;;;;;;;;;;5073718;28;20120;-71
2021/07/19 01:39:39;;;;;;;4.20;2.22;;;;;;;;;;5091632;28;20031;-71
2021/07/19 01:42:06;;;;;;;4.22;1.92;;;;;;;;;;5087021;28;20031;-71
2021/07/19 01:44:32;;;;;;;4.03;1.80;;;;;;;;;;5063026;28;20029;-72
2021/07/19 01:47:00;;;;;;;3.42;1.90;;;;;;;;;;5053712;28;20047;-72
2021/07/19 01:49:27;;;;;;;5.82;1.73;;;;;;;;;;5053352;28;20106;-71
2021/07/19 01:51:53;;;;;;;3.10;1.77;;;;;;;;;;5053510;28;20052;-71
2021/07/19 01:54:20;;;;;;;3.80;1.95;;;;;;;;;;5060602;28;20361;-71
2021/07/19 01:56:48;;;;;;;4.30;2.03;;;;;;;;;;5067306;28;20100;-72
2021/07/19 01:59:14;;;;;;;5.53;2.30;;;;;;;;;;5053398;28;20075;-72
2021/07/19 02:01:40;;;;;;;3.97;2.00;;;;;;;;;;5053049;28;20072;-71
2021/07/19 02:04:08;;;;;;;3.20;1.92;;;;;;;;;;5053184;28;20075;-72
2021/07/19 02:06:35;;;;;;;6.35;2.15;;;;;;;;;;5053002;28;20071;-72
2021/07/19 02:09:05;;;;;;;3.67;1.90;;;;;;;;;;5053409;28;20036;-71
2021/07/19 02:11:32;;;;;;;5.55;2.25;;;;;;;;;;5052911;28;20029;-71
2021/07/19 02:13:59;;;;;;;5.05;1.88;;;;;;;;;;5053869;28;20090;-71
2021/07/19 02:16:28;;;;;;;4.85;2.00;;;;;;;;;;5071124;28;20031;-71
2021/07/19 02:18:54;;;;;;;3.22;1.80;;;;;;;;;;5093227;28;20480;-71
2021/07/19 02:21:23;;;;;;;5.95;1.95;;;;;;;;;;5059168;28;20029;-71
2021/07/19 02:23:50;;;;;;;4.32;2.22;;;;;;;;;;5052574;28;20461;-71
2021/07/19 02:26:16;;;;;;;4.97;2.30;;;;;;;;;;5052203;28;20267;-71
2021/07/19 02:28:42;;;;;;;4.95;2.15;;;;;;;;;;5052769;28;20056;-71
2021/07/19 02:31:08;;;;;;;5.25;2.17;;;;;;;;;;5052760;28;20118;-71
2021/07/19 02:33:39;;;;;;;4.70;1.95;;;;;;;;;;5064536;28;20193;-71
2021/07/19 02:36:09;;;;;;;5.28;2.35;;;;;;;;;;5073097;28;20438;-72
2021/07/19 02:38:35;;;;;;;7.18;2.72;;;;;;;;;;5080632;28;20077;-71
2021/07/19 02:41:04;;;;;;;4.72;2.17;;;;;;;;;;5092737;28;20020;-70
2021/07/19 02:43:30;;;;;;;5.82;2.20;;;;;;;;;;5092596;28;20023;-71
2021/07/19 02:45:58;;;;;;;3.17;2.08;;;;;;;;;;5092684;28;20536;-72
2021/07/19 02:48:29;;;;;;;4.82;2.35;;;;;;;;;;5074645;28;20043;-71
2021/07/19 02:50:58;;;;;;;8.13;2.17;;;;;;;;;;5052400;28;20047;-72
2021/07/19 02:53:28;;;;;;;6.43;2.20;;;;;;;;;;5055938;28;20480;-72
2021/07/19 02:55:55;;;;;;;5.72;2.35;;;;;;;;;;5068001;28;20029;-71
2021/07/19 02:58:21;;;;;;;5.07;1.90;;;;;;;;;;5052363;28;20013;-72
2021/07/19 03:00:48;;;;;;;4.00;2.28;;;;;;;;;;5052090;28;20363;-71
2021/07/19 03:03:18;;;;;;;7.90;2.35;;;;;;;;;;5051950;28;20024;-71
2021/07/19 03:05:46;;;;;;;4.35;2.13;;;;;;;;;;5051855;28;20060;-70
2021/07/19 03:08:13;;;;;;;3.67;2.20;;;;;;;;;;5052087;28;20064;-72
2021/07/19 03:10:40;;;;;;;5.03;2.05;;;;;;;;;;5051865;28;20539;-71
2021/07/19 03:13:12;;;;;;;5.47;2.22;;;;;;;;;;5051744;28;20044;-72
2021/07/19 03:15:40;;;;;;;4.10;2.33;;;;;;;;;;5072216;28;20032;-72
2021/07/19 03:18:09;;;;;;;3.85;2.25;;;;;;;;;;5081258;28;20036;-72
2021/07/19 03:20:36;;;;;;;5.90;2.35;;;;;;;;;;5071514;28;20543;-71
2021/07/19 03:23:06;;;;;;;6.38;2.40;;;;;;;;;;5071672;28;20024;-70
2021/07/19 03:25:32;;;;;;;4.90;2.03;;;;;;;;;;5056829;28;20029;-72
2021/07/19 03:27:59;;;;;;;5.43;2.70;;;;;;;;;;5051738;28;20534;-71
2021/07/19 03:30:25;;;;;;;8.23;2.50;;;;;;;;;;5051582;28;20472;-72
2021/07/19 03:32:51;;;;;;;4.32;2.28;;;;;;;;;;5063358;28;20025;-71
2021/07/19 03:35:20;;;;;;;5.05;2.28;;;;;;;;;;5070824;28;20495;-71
2021/07/19 03:37:47;;;;;;;5.43;2.50;;;;;;;;;;5072796;28;20075;-71
2021/07/19 03:40:16;;;;;;;5.80;2.33;;;;;;;;;;5077724;28;20025;-71
2021/07/19 03:42:43;;;;;;;4.75;2.22;;;;;;;;;;5051151;28;20031;-71
2021/07/19 03:45:11;;;;;;;5.90;2.20;;;;;;;;;;5051035;28;20402;-71
2021/07/19 03:47:40;;;;;;;2.83;1.77;;;;;;;;;;5050650;28;20024;-71
2021/07/19 03:50:06;;;;;;;6.60;2.42;;;;;;;;;;5056180;28;20032;-71
2021/07/19 03:52:32;;;;;;;3.92;2.10;;;;;;;;;;5070868;28;20024;-71
2021/07/19 03:54:58;;;;;;;4.43;2.25;;;;;;;;;;5070814;28;20032;-71
2021/07/19 03:57:25;;;;;;;4.25;2.10;;;;;;;;;;5070883;28;20103;-72
2021/07/19 03:59:52;;;;;;;4.45;2.20;;;;;;;;;;5068910;28;20032;-71
2021/07/19 04:02:18;;;;;;;3.97;2.13;;;;;;;;;;5070815;28;20025;-70
2021/07/19 04:04:51;;;;;;;4.70;2.00;;;;;;;;;;5070491;28;20028;-70
2021/07/19 04:07:19;;;;;;;3.60;2.00;;;;;;;;;;5070615;28;20029;-71
2021/07/19 04:09:45;;;;;;;4.93;1.90;;;;;;;;;;5033653;28;20025;-71
2021/07/19 04:12:14;;;;;;;3.28;1.77;;;;;;;;;;5069047;28;20035;-71
2021/07/19 04:14:40;;;;;;;5.68;1.83;;;;;;;;;;5070634;28;20112;-70
2021/07/19 04:17:06;;;;;;;3.67;1.83;;;;;;;;;;5056015;28;20396;-71
2021/07/19 04:19:33;;;;;;;4.03;2.00;;;;;;;;;;5066579;28;20016;-72
2021/07/19 04:21:59;;;;;;;4.22;1.75;;;;;;;;;;5070802;28;20040;-70
2021/07/19 04:24:25;;;;;;;4.85;2.10;;;;;;;;;;5070952;28;20024;-72
2021/07/19 04:26:52;;;;;;;4.82;2.10;;;;;;;;;;5040700;28;20017;-71
2021/07/19 04:29:21;;;;;;;3.20;1.80;;;;;;;;;;5050700;28;20107;-71
2021/07/19 04:31:57;;;;;;;3.92;1.83;;;;;;;;;;5051469;28;20064;-71
2021/07/19 04:34:31;;;;;;;3.88;1.92;;;;;;;;;;5050352;28;20056;-71
2021/07/19 04:37:04;;;;;;;4.68;2.08;;;;;;;;;;5050428;28;20037;-72
2021/07/19 04:39:30;;;;;;;4.32;1.88;;;;;;;;;;5053476;28;20037;-71
2021/07/19 04:41:56;;;;;;;4.75;2.00;;;;;;;;;;5052116;28;20047;-72
2021/07/19 04:44:22;;;;;;;3.65;2.00;;;;;;;;;;5057213;28;20487;-71
2021/07/19 04:46:50;;;;;;;4.53;1.70;;;;;;;;;;5069633;28;20108;-71
2021/07/19 04:49:16;;;;;;;3.28;1.95;;;;;;;;;;5072282;28;20055;-71
2021/07/19 04:51:41;;;;;;;5.45;1.83;;;;;;;;;;5071647;28;20123;-70
2021/07/19 04:54:08;;;;;;;4.93;1.85;;;;;;;;;;5061592;28;20218;-70
2021/07/19 04:56:35;;;;;;;3.78;1.70;;;;;;;;;;5057686;28;20020;-71
2021/07/19 04:59:02;;;;;;;3.25;1.70;;;;;;;;;;5068752;28;20037;-71
2021/07/19 05:01:30;;;;;;;5.85;1.90;;;;;;;;;;5068088;28;20020;-69
2021/07/19 05:03:57;;;;;;;5.25;2.58;;;;;;;;;;5071728;28;20039;-71
2021/07/19 05:06:25;;;;;;;4.15;1.70;;;;;;;;;;5060370;28;20021;-72
2021/07/19 05:08:52;;;;;;;4.45;1.80;;;;;;;;;;5058947;28;20048;-71
2021/07/19 05:11:20;;;;;;;4.65;1.90;;;;;;;;;;5073619;28;20617;-71
2021/07/19 05:13:45;;;;;;;5.03;1.55;;;;;;;;;;5094618;28;20348;-72
2021/07/19 05:16:12;;;;;;;3.42;1.50;;;;;;;;;;5073132;28;20023;-71
2021/07/19 05:18:39;;;;;;;4.90;2.35;;;;;;;;;;5064514;28;20418;-72
2021/07/19 05:21:05;;;;;;;3.85;1.77;;;;;;;;;;5074163;28;20464;-71
2021/07/19 05:23:30;;;;;;;2.78;1.42;;;;;;;;;;5060667;28;20112;-73
2021/07/19 05:25:56;;;;;;;4.47;1.70;;;;;;;;;;5057676;28;20021;-71
2021/07/19 05:28:22;;;;;;;3.22;1.67;;;;;;;;;;5052861;28;20087;-72
2021/07/19 05:30:50;;;;;;;3.03;1.63;;;;;;;;;;5053393;28;20033;-72
2021/07/19 05:33:18;;;;;;;3.25;1.40;;;;;;;;;;5054307;28;20036;-71
2021/07/19 05:35:44;;;;;;;3.40;1.50;;;;;;;;;;5060387;28;20491;-70
2021/07/19 05:38:09;;;;;;;5.78;1.42;;;;;;;;;;5064758;28;20028;-71
2021/07/19 05:40:35;;;;;;;3.35;1.40;;;;;;;;;;5065318;28;20375;-71
2021/07/19 05:43:03;;;;;;;4.45;1.30;;;;;;;;;;5053573;28;20051;-72
2021/07/19 05:45:28;;;;;;;3.22;1.10;;;;;;;;;;5059125;28;20387;-71
2021/07/19 05:47:54;;;;;;;4.93;1.38;;;;;;;;;;5073022;28;20028;-71
2021/07/19 05:50:20;;;;;;;2.10;1.10;;;;;;;;;;5073006;28;20036;-72
2021/07/19 05:52:46;;;;;;;3.15;0.90;;;;;;;;;;5072818;28;20025;-71
2021/07/19 05:55:12;;;;;;;2.55;1.15;;;;;;;;;;5055501;28;20025;-70
2021/07/19 05:57:38;;;;;;;3.08;1.02;;;;;;;;;;5052911;28;20050;-71
2021/07/19 06:00:09;;;;;;;1.83;1.00;;;;;;;;;;5055870;28;20036;-71
2021/07/19 06:02:36;;;;;;;3.42;1.00;;;;;;;;;;5062694;28;20017;-70
2021/07/19 06:05:03;;;;;;;1.77;1.10;;;;;;;;;;5058174;28;20062;-71
2021/07/19 06:07:28;;;;;;;2.92;1.10;;;;;;;;;;5053314;28;20060;-70
2021/07/19 06:09:54;;;;;;;2.45;1.10;;;;;;;;;;5070654;28;20541;-70
2021/07/19 06:12:19;;;;;;;1.20;0.80;;;;;;;;;;5068454;28;20427;-70
2021/07/19 06:14:45;;;;;;;1.90;1.00;;;;;;;;;;5055223;28;20047;-72
2021/07/19 06:17:12;;;;;;;1.33;0.93;;;;;;;;;;5064910;28;20389;-69
2021/07/19 06:19:39;;;;;;;1.88;0.80;;;;;;;;;;5052714;28;20476;-70
2021/07/19 06:22:04;;;;;;;2.58;0.90;;;;;;;;;;5053190;28;20112;-71
2021/07/19 06:24:29;;;;;;;1.95;0.80;;;;;;;;;;5052927;28;20563;-71
2021/07/19 06:26:55;;;;;;;2.20;1.08;;;;;;;;;;5060186;28;20028;-70
2021/07/19 06:29:21;;;;;;;1.55;0.82;;;;;;;;;;5072389;28;20415;-72
2021/07/19 06:31:46;;;;;;;2.53;0.88;;;;;;;;;;5071953;28;20043;-70
2021/07/19 06:34:12;;;;;;;3.08;0.80;;;;;;;;;;5065076;28;20056;-71
2021/07/19 06:36:37;;;;;;;1.20;0.90;;;;;;;;;;5067029;28;20443;-71
2021/07/19 06:39:04;;;;;;;1.88;0.85;;;;;;;;;;5084644;28;20040;-70
2021/07/19 06:41:31;;;;;;;1.70;0.93;;;;;;;;;;5072767;28;20020;-70
2021/07/19 06:43:56;;;;;;;2.88;0.82;;;;;;;;;;5071977;28;20077;-70
2021/07/19 06:46:22;;;;;;;1.70;0.80;;;;;;;;;;5072251;28;20028;-72
2021/07/19 06:48:47;;;;;;;2.78;0.90;;;;;;;;;;5071879;28;20045;-70
2021/07/19 06:51:13;;;;;;;2.72;0.90;;;;;;;;;;5072419;28;20255;-71
2021/07/19 06:53:38;;;;;;;3.08;1.48;;;;;;;;;;5071690;28;20039;-71
2021/07/19 06:56:04;;;;;;;3.55;1.00;;;;;;;;;;5071459;28;20020;-72
2021/07/19 06:58:30;;;;;;;2.00;1.00;;;;;;;;;;5061496;28;20024;-71
2021/07/19 07:00:59;;;;;;;1.77;0.98;;;;;;;;;;5068250;28;20016;-74
2021/07/19 07:03:27;;;;;;;3.17;0.98;;;;;;;;;;5068327;28;20017;-72
2021/07/19 07:05:55;;;;;;;2.72;1.20;;;;;;;;;;5067068;28;20033;-73
2021/07/19 07:08:21;;;;;;;2.88;1.00;;;;;;;;;;5068809;28;20031;-72
2021/07/19 07:10:49;;;;;;;3.05;1.05;;;;;;;;;;5069644;28;20032;-72
2021/07/19 07:13:16;;;;;;;1.52;0.90;;;;;;;;;;5071887;28;20499;-72
2021/07/19 07:15:42;;;;;;;3.75;0.80;;;;;;;;;;5074614;28;20437;-71
2021/07/19 07:18:12;;;;;;;2.20;1.13;;;;;;;;;;5057682;28;20027;-72
2021/07/19 07:20:46;;;;;;;1.95;1.05;;;;;;;;;;5062725;28;20021;-73
2021/07/19 07:23:12;;;;;;;2.25;0.98;;;;;;;;;;5060076;28;20111;-73
2021/07/19 07:25:46;;;;;;;1.92;1.10;;;;;;;;;;5060347;28;20131;-73
2021/07/19 07:28:12;;;;;;;4.22;1.20;;;;;;;;;;5055005;28;20174;-73
2021/07/19 07:30:40;;;;;;;1.60;0.90;;;;;;;;;;5054504;28;20108;-70
2021/07/19 07:33:10;;;;;;;2.13;0.88;;;;;;;;;;5068476;28;20391;-73
2021/07/19 07:35:40;;;;;;;2.75;1.00;;;;;;;;;;5070100;28;20103;-69
2021/07/19 07:38:09;;;;;;;2.95;1.10;;;;;;;;;;5060026;28;20020;-71
2021/07/19 07:40:36;;;;;;;1.75;0.60;;;;;;;;;;5052863;28;20114;-73
2021/07/19 07:43:01;;;;;;;1.83;0.70;;;;;;;;;;5062603;28;20703;-72
2021/07/19 07:45:31;;;;;;;1.75;0.77;;;;;;;;;;5055609;28;20114;-71
2021/07/19 07:47:59;;;;;;;1.70;0.77;;;;;;;;;;5061768;28;20024;-71
2021/07/19 07:50:26;;;;;;;1.15;0.70;;;;;;;;;;5072326;28;20476;-73
2021/07/19 07:52:51;;;;;;;2.15;1.17;;;;;;;;;;5070603;28;20177;-72
2021/07/19 07:55:22;;;;;;;1.88;0.70;;;;;;;;;;5072105;28;20096;-71
2021/07/19 07:57:50;;;;;;;3.95;1.00;;;;;;;;;;5055297;28;20028;-72
2021/07/19 08:00:18;;;;;;;1.95;0.80;;;;;;;;;;5061489;28;20469;-72
2021/07/19 08:02:46;;;;;;;1.65;0.70;;;;;;;;;;5062946;28;20040;-71
2021/07/19 08:05:17;;;;;;;1.92;0.65;;;;;;;;;;5056674;28;20025;-72
2021/07/19 08:07:43;;;;;;;0.85;0.60;;;;;;;;;;5052014;28;20037;-72
2021/07/19 08:10:10;;;;;;;0.93;0.60;;;;;;;;;;5057328;28;20029;-71
2021/07/19 08:12:39;;;;;;;1.75;0.88;;;;;;;;;;5068619;28;20096;-70
2021/07/19 08:15:08;;;;;;;2.95;0.80;;;;;;;;;;5068207;28;20024;-73
2021/07/19 08:17:57;;;;;;;3.40;0.93;;;;;;;;;;5090382;28;20073;-72
2021/07/19 08:20:22;;;;;;;0.93;0.70;;;;;;;;;;5058227;28;20028;-73
2021/07/19 08:22:48;;;;;;;3.35;1.00;;;;;;;;;;5061159;28;20654;-71
2021/07/19 08:25:17;;;;;;;1.45;0.70;;;;;;;;;;5051872;28;20057;-72
2021/07/19 08:27:46;;;;;;;1.75;0.85;;;;;;;;;;5065782;28;20051;-74
2021/07/19 08:30:12;;;;;;;1.50;0.88;;;;;;;;;;5066518;28;20029;-72
2021/07/19 08:32:39;;;;;;;1.10;0.80;;;;;;;;;;5067528;28;20035;-73
2021/07/19 08:35:11;;;;;;;1.45;1.02;;;;;;;;;;5058878;28;20040;-74
2021/07/19 08:37:45;;;;;;;1.58;0.80;;;;;;;;;;5068335;28;20025;-72
2021/07/19 08:40:13;;;;;;;1.63;0.80;;;;;;;;;;5070166;28;20028;-72
2021/07/19 08:42:40;;;;;;;1.58;0.90;;;;;;;;;;5068162;28;20369;-70
2021/07/19 08:45:13;;;;;;;2.53;0.80;;;;;;;;;;5058220;28;20488;-70
2021/07/19 08:47:42;;;;;;;4.90;2.03;;;;;;;;;;5066853;28;20036;-70
2021/07/19 08:50:09;;;;;;;5.45;1.23;;;;;;;;;;5056197;28;20044;-72
2021/07/19 08:52:40;;;;;;;3.50;1.10;;;;;;;;;;5051699;28;20025;-70
2021/07/19 08:55:10;;;;;;;4.75;1.10;;;;;;;;;;5059821;28;20021;-72
2021/07/19 08:57:40;;;;;;;1.60;1.00;;;;;;;;;;5063784;28;20033;-72
2021/07/19 09:00:09;;;;;;;3.80;1.20;;;;;;;;;;5068884;28;20107;-70
2021/07/19 09:02:43;;;;;;;2.80;1.02;;;;;;;;;;5064328;28;20047;-71
2021/07/19 09:05:10;;;;;;;2.35;1.05;;;;;;;;;;5064709;28;20115;-71
2021/07/19 09:07:35;;;;;;;1.85;0.93;;;;;;;;;;5064884;28;20364;-71
2021/07/19 09:10:02;;;;;;;4.82;1.00;;;;;;;;;;5062886;28;20036;-70
2021/07/19 09:12:45;;;;;;;2.10;0.95;;;;;;;;;;5072332;28;20460;-70
2021/07/19 09:15:14;;;;;;;0.85;0.70;;;;;;;;;;5059957;28;20028;-71
2021/07/19 09:17:44;;;;;;;1.92;0.80;;;;;;;;;;5083614;28;20043;-71
2021/07/19 09:20:20;;;;;;;3.67;0.88;;;;;;;;;;5052451;28;20342;-70
2021/07/19 09:22:52;;;;;;;1.17;0.75;;;;;;;;;;5060774;28;20032;-71
2021/07/19 09:25:21;;;;;;;3.63;0.90;;;;;;;;;;5069811;28;20444;-72
2021/07/19 09:28:04;;;;;;;1.95;0.70;;;;;;;;;;5055257;28;20029;-74
2021/07/19 09:30:35;;;;;;;1.67;0.80;;;;;;;;;;5051614;28;20029;-72
2021/07/19 09:33:07;;;;;;;0.75;0.55;;;;;;;;;;5063825;28;20485;-71
2021/07/19 09:35:41;;;;;;;1.70;0.73;;;;;;;;;;5074521;28;20037;-71
2021/07/19 09:38:09;;;;;;;0.90;0.50;;;;;;;;;;5072711;28;20032;-71
2021/07/19 09:40:39;;;;;;;3.45;0.70;;;;;;;;;;5074266;28;20392;-72
2021/07/19 09:43:23;;;;;;;1.25;0.80;;;;;;;;;;5075351;28;20035;-69
2021/07/19 09:46:00;;;;;;;;;;;;;;;;;;5075274;28;20032;-71
2021/07/19 09:48:26;;;;;;;1.45;0.60;;;;;;;;;;5062669;28;20435;-71
2021/07/19 09:50:52;;;;;;;1.98;0.68;;;;;;;;;;5074848;28;20154;-70
2021/07/19 09:53:39;;;;;;;0.98;0.85;;;;;;;;;;5069955;28;20074;-71
2021/07/19 09:56:25;;;;;;;2.55;0.55;;;;;;;;;;5058047;28;20059;-71
2021/07/19 09:59:08;;;;;;;2.35;0.60;;;;;;;;;;5074817;28;20081;-72
2021/07/19 10:01:40;;;;;;;2.30;0.80;;;;;;;;;;5063823;28;20468;-71
2021/07/19 10:04:09;;;;;;;2.63;0.70;;;;;;;;;;5068602;28;20858;-71
2021/07/19 10:06:42;;;;;;;1.80;0.65;;;;;;;;;;5062268;28;20023;-70
2021/07/19 10:09:11;;;;;;;;;;;;;;;;;;5072851;28;20050;-72
2021/07/19 10:11:40;;;;;;;2.35;0.80;;;;;;;;;;5074880;28;19908;-71
2021/07/19 10:14:06;;;;;;;6.95;2.00;;;;;;;;;;5072220;28;20478;-70
2021/07/19 10:16:33;;;;;;;1.05;0.65;;;;;;;;;;5063993;28;20372;-72
2021/07/19 10:19:02;;;;;;;1.92;0.80;;;;;;;;;;5065700;28;20028;-69
2021/07/19 10:21:33;;;;;;;4.47;1.08;;;;;;;;;;5072496;28;20123;-70
2021/07/19 10:24:00;;;;;;;3.72;0.57;;;;;;;;;;5069749;28;20029;-69
2021/07/19 10:26:29;;;;;;;3.85;0.50;;;;;;;;;;5072656;28;20024;-73
2021/07/19 10:28:59;;;;;;;0.98;0.60;;;;;;;;;;5069552;28;20024;-72
2021/07/19 10:31:28;;;;;;;1.67;0.60;;;;;;;;;;5067507;28;20021;-71
2021/07/19 10:34:01;;;;;;;0.65;0.60;;;;;;;;;;5056599;28;20021;-70
2021/07/19 10:36:46;;;;;;;0.77;0.75;;;;;;;;;;5073318;28;20679;-74
2021/07/19 10:39:16;;;;;;;2.42;0.50;;;;;;;;;;5058883;28;20649;-70
2021/07/19 10:41:44;;;;;;;1.75;0.70;;;;;;;;;;5054487;28;20025;-72
2021/07/19 10:44:14;;;;;;;0.98;0.57;;;;;;;;;;5060841;28;20024;-72
2021/07/19 10:46:41;;;;;;;0.95;0.70;;;;;;;;;;5065941;28;20028;-71
2021/07/19 10:49:13;;;;;;;1.05;0.52;;;;;;;;;;5066442;28;20071;-72
2021/07/19 10:51:44;;;;;;;1.05;0.60;;;;;;;;;;5064540;28;20025;-73
2021/07/19 10:54:25;;;;;;;0.85;0.70;;;;;;;;;;5060103;28;20040;-71
2021/07/19 10:56:58;;;;;;;2.20;0.68;;;;;;;;;;5072514;28;20475;-74
2021/07/19 10:59:30;;;;;;;1.92;0.70;;;;;;;;;;5069698;28;20099;-72
2021/07/19 11:02:03;;;;;;;1.40;0.80;;;;;;;;;;5068357;28;20036;-73
2021/07/19 11:04:33;;;;;;;2.35;0.70;;;;;;;;;;5054084;28;20468;-70
2021/07/19 11:07:13;;;;;;;1.60;0.80;;;;;;;;;;5054057;28;20033;-72
2021/07/19 11:09:40;;;;;;;3.63;0.68;;;;;;;;;;5052980;28;20059;-73
2021/07/19 11:12:07;;;;;;;2.00;0.80;;;;;;;;;;5053642;28;20083;-72
2021/07/19 11:14:45;;;;;;;1.58;0.80;;;;;;;;;;5056348;28;20020;-73
2021/07/19 11:17:16;;;;;;;1.65;0.55;;;;;;;;;;5065118;28;20111;-73
2021/07/19 11:19:46;;;;;;;1.17;0.68;;;;;;;;;;5067279;28;20046;-72
2021/07/19 11:22:22;;;;;;;1.02;0.70;;;;;;;;;;5071456;28;20028;-72
2021/07/19 11:24:49;;;;;;;0.80;0.70;;;;;;;;;;5062901;28;20021;-72
2021/07/19 11:27:28;;;;;;;1.45;0.80;;;;;;;;;;5062953;28;20483;-73
2021/07/19 11:30:22;;;;;;;1.33;0.70;;;;;;;;;;5058040;28;20150;-72
2021/07/19 11:32:48;;;;;;;;;;;;;;;;;;5064030;28;20032;-72
2021/07/19 11:35:20;;;;;;;2.28;0.52;;;;;;;;;;5055796;28;19939;-73
2021/07/19 11:37:51;;;;;;;2.05;0.60;;;;;;;;;;5070814;28;20427;-72
2021/07/19 11:40:32;;;;;;;1.38;0.70;;;;;;;;;;5061261;28;20037;-72
2021/07/19 11:43:18;;;;;;;1.13;0.60;;;;;;;;;;5051583;28;20071;-73
2021/07/19 11:45:48;;;;;;;2.00;0.73;;;;;;;;;;5051426;28;20031;-72
2021/07/19 11:48:23;;;;;;;1.70;0.70;;;;;;;;;;5060221;28;20032;-73
2021/07/19 11:50:55;;;;;;;2.47;0.60;;;;;;;;;;5071242;28;20082;-75
2021/07/19 11:53:24;;;;;;;3.08;1.00;;;;;;;;;;5053732;28;20075;-73
2021/07/19 11:55:51;;;;;;;1.02;0.60;;;;;;;;;;5051308;28;20483;-72
2021/07/19 11:58:17;;;;;;;3.15;0.60;;;;;;;;;;5051086;28;20021;-73
2021/07/19 12:00:44;;;;;;;2.35;0.80;;;;;;;;;;5051251;28;20073;-75
2021/07/19 12:03:19;;;;;;;1.40;0.50;;;;;;;;;;5050813;28;20025;-72
2021/07/19 12:05:59;;;;;;;1.73;0.60;;;;;;;;;;5051074;28;20538;-73
2021/07/19 12:08:34;;;;;;;2.28;0.75;;;;;;;;;;5051483;28;20381;-73
2021/07/19 12:11:27;;;;;;;2.28;0.70;;;;;;;;;;5052538;28;20435;-71
2021/07/19 12:14:03;;;;;;;1.23;0.50;;;;;;;;;;5052049;28;20053;-72
2021/07/19 12:16:38;;;;;;;2.00;0.68;;;;;;;;;;5051353;28;20037;-72
2021/07/19 12:19:05;;;;;;;2.00;0.60;;;;;;;;;;5061062;28;20456;-74
2021/07/19 12:21:42;;;;;;;1.00;0.70;;;;;;;;;;5058714;28;20626;-73
2021/07/19 12:24:12;;;;;;;1.50;0.50;;;;;;;;;;5057419;28;20024;-72
2021/07/19 12:26:44;;;;;;;1.23;0.50;;;;;;;;;;5064502;28;20429;-71
2021/07/19 12:29:13;;;;;;;1.95;0.60;;;;;;;;;;5053097;28;20684;-71
2021/07/19 12:31:47;;;;;;;1.02;0.55;;;;;;;;;;5051727;28;20357;-72
2021/07/19 12:34:20;;;;;;;1.58;0.47;;;;;;;;;;5059141;28;20032;-72
2021/07/19 12:36:54;;;;;;;1.35;0.55;;;;;;;;;;5071403;28;20077;-73
2021/07/19 12:39:26;;;;;;;1.65;0.60;;;;;;;;;;5073284;28;20372;-73
2021/07/19 12:42:01;;;;;;;0.80;0.47;;;;;;;;;;5064951;28;20036;-72
2021/07/19 12:44:29;;;;;;;1.05;0.75;;;;;;;;;;5077699;28;20024;-72
2021/07/19 12:46:56;;;;;;;1.00;0.60;;;;;;;;;;5072823;28;20029;-72
2021/07/19 12:49:34;;;;;;;3.47;0.70;;;;;;;;;;5064315;28;20568;-72
2021/07/19 12:52:15;;;;;;;2.25;0.70;;;;;;;;;;5070061;28;20043;-73
2021/07/19 12:54:54;;;;;;;0.60;0.50;;;;;;;;;;5064290;28;20475;-72
2021/07/19 12:57:22;;;;;;;0.70;0.60;;;;;;;;;;5071545;28;20024;-72
2021/07/19 12:59:54;;;;;;;1.05;0.50;;;;;;;;;;5067256;28;20379;-73
2021/07/19 13:02:20;;;;;;;0.90;0.50;;;;;;;;;;5053476;28;20113;-73
2021/07/19 13:04:51;;;;;;;1.35;0.60;;;;;;;;;;5067407;28;20055;-71
2021/07/19 13:07:36;;;;;;;2.03;0.60;;;;;;;;;;5060890;28;20021;-72
2021/07/19 13:10:13;;;;;;;1.60;0.60;;;;;;;;;;5065102;28;20447;-71
2021/07/19 13:12:55;;;;;;;0.95;0.60;;;;;;;;;;5057115;28;20036;-72
2021/07/19 13:15:21;;;;;;;1.17;0.57;;;;;;;;;;5073598;28;20071;-72
2021/07/19 13:18:03;;;;;;;1.38;0.70;;;;;;;;;;5073814;28;20040;-72
2021/07/19 13:20:29;;;;;;;0.80;0.50;;;;;;;;;;5074811;28;20094;-72
2021/07/19 13:23:18;;;;;;;1.02;0.70;;;;;;;;;;5069112;28;20487;-71
2021/07/19 13:25:47;;;;;;;1.20;0.50;;;;;;;;;;5071480;28;20036;-72
2021/07/19 13:28:14;;;;;;;1.63;0.60;;;;;;;;;;5063818;28;20033;-72
2021/07/19 13:30:40;;;;;;;1.45;0.60;;;;;;;;;;5062424;28;20053;-73
2021/07/19 13:33:21;;;;;;;3.28;0.65;;;;;;;;;;5067895;28;20060;-73
2021/07/19 13:35:47;;;;;;;1.05;0.57;;;;;;;;;;5071897;28;20039;-72
2021/07/19 13:38:44;;;;;;;1.50;0.60;;;;;;;;;;5065992;28;20025;-75
2021/07/19 13:41:16;;;;;;;0.80;0.50;;;;;;;;;;5045122;28;20040;-72
2021/07/19 13:43:41;;;;;;;2.10;0.70;;;;;;;;;;5066843;28;20052;-73
2021/07/19 13:46:08;;;;;;;1.20;0.60;;;;;;;;;;5064200;28;20082;-71
2021/07/19 13:48:34;;;;;;;1.58;0.65;;;;;;;;;;5073207;28;20055;-72
2021/07/19 13:51:03;;;;;;;1.25;0.80;;;;;;;;;;5074800;28;20040;-76
2021/07/19 13:53:30;;;;;;;2.10;0.90;;;;;;;;;;5058262;28;20109;-72
2021/07/19 13:56:00;;;;;;;0.70;0.50;;;;;;;;;;5074414;28;20029;-71
2021/07/19 13:58:27;;;;;;;1.02;0.90;;;;;;;;;;5059239;28;20103;-72
2021/07/19 14:00:57;;;;;;;1.02;0.60;;;;;;;;;;5061832;28;20031;-73
2021/07/19 14:03:25;;;;;;;0.88;0.57;;;;;;;;;;5062638;28;20547;-74
2021/07/19 14:05:58;;;;;;;2.25;0.70;;;;;;;;;;5055656;28;20025;-74
2021/07/19 14:08:23;;;;;;;;;;;;;;;;;;5062868;28;20055;-74
2021/07/19 14:10:49;;;;;;;1.35;0.90;;;;;;;;;;5062731;28;19916;-71
2021/07/19 14:13:18;;;;;;;3.45;1.10;;;;;;;;;;5068162;28;20028;-73
2021/07/19 14:15:43;;;;;;;1.55;0.90;;;;;;;;;;5064368;28;20027;-71
2021/07/19 14:18:09;;;;;;;2.95;0.70;;;;;;;;;;5064300;28;20495;-72
2021/07/19 14:20:37;;;;;;;2.40;0.98;;;;;;;;;;5066996;28;20074;-71
2021/07/19 14:23:10;;;;;;;1.08;0.70;;;;;;;;;;5074004;28;20025;-70
2021/07/19 14:25:35;;;;;;;;;;;;;;;;;;5066083;28;20029;-74
2021/07/19 14:28:06;;;;;;;2.25;0.85;;;;;;;;;;5072974;28;19919;-72
2021/07/19 14:30:33;;;;;;;1.75;0.70;;;;;;;;;;5057758;28;20095;-71
2021/07/19 14:32:59;;;;;;;2.95;0.80;;;;;;;;;;5070493;28;20032;-72
2021/07/19 14:35:30;;;;;;;1.38;0.90;;;;;;;;;;5070931;28;20035;-72
2021/07/19 14:37:55;;;;;;;3.15;0.88;;;;;;;;;;5072828;28;20024;-73
2021/07/19 14:40:21;;;;;;;1.15;0.70;;;;;;;;;;5060898;28;20035;-72
2021/07/19 14:42:48;;;;;;;0.77;0.77;;;;;;;;;;5065349;28;20039;-73
2021/07/19 14:45:17;;;;;;;2.25;0.70;;;;;;;;;;5054641;28;20017;-72
2021/07/19 14:47:43;;;;;;;0.90;0.52;;;;;;;;;;5064911;28;20029;-72
2021/07/19 14:50:10;;;;;;;0.88;0.57;;;;;;;;;;5034791;28;20065;-73
2021/07/19 14:52:36;;;;;;;1.15;0.50;;;;;;;;;;5033154;28;20435;-73
2021/07/19 14:55:04;;;;;;;0.93;0.40;;;;;;;;;;5032912;28;20053;-73
2021/07/19 14:57:33;;;;;;;0.68;0.60;;;;;;;;;;5033187;28;20021;-73
2021/07/19 14:59:59;;;;;;;1.50;0.65;;;;;;;;;;5024570;28;20036;-73